BTK1152 WIII-WIPP
Flight info
| Callsign | BTK1152 |
|---|---|
| Flight time | 0h 45m |
| Altitude | 30000 |
| Route | DOLTA W12 GUSKO |
| Aircraft | A320/M-SDE3FGHIRWY/LB1 |
Departure
| Time | 2026-05-08 10:43 |
|---|---|
| Airport | Soekarno-Hatta International Airport (WIII) |
Arrival
| Time | 2026-05-08 11:28 |
|---|---|
| Airport | Sultan Mahmud Badaruddin II Airport (WIPP) |
| Time | Latitude | Longitude | Altitude | Speed | Heading |
|---|---|---|---|---|---|
| 2026-05-08 10:21 | -6.12008 | 106.65312 | 26 ft | 0 kts | 220° |
| 2026-05-08 10:33 | -6.11992 | 106.65326 | 38 ft | 4 kts | 223° |
| 2026-05-08 10:33 | -6.11973 | 106.65346 | 34 ft | 4 kts | 231° |
| 2026-05-08 10:33 | -6.11959 | 106.65368 | 38 ft | 4 kts | 265° |
| 2026-05-08 10:34 | -6.11960 | 106.65381 | 38 ft | 1 kts | 301° |
| 2026-05-08 10:36 | -6.11959 | 106.65378 | 38 ft | 2 kts | 301° |
| 2026-05-08 10:37 | -6.11945 | 106.65356 | 17 ft | 6 kts | 302° |
| 2026-05-08 10:37 | -6.11914 | 106.65311 | 38 ft | 8 kts | 307° |
| 2026-05-08 10:37 | -6.11875 | 106.65264 | 38 ft | 11 kts | 319° |
| 2026-05-08 10:37 | -6.11809 | 106.65230 | 36 ft | 8 kts | 337° |
| 2026-05-08 10:38 | -6.11779 | 106.65181 | 38 ft | 10 kts | 261° |
| 2026-05-08 10:38 | -6.11810 | 106.65102 | 39 ft | 14 kts | 248° |
| 2026-05-08 10:38 | -6.11851 | 106.64997 | 38 ft | 18 kts | 249° |
| 2026-05-08 10:38 | -6.11901 | 106.64872 | 36 ft | 21 kts | 248° |
| 2026-05-08 10:39 | -6.11957 | 106.64733 | 39 ft | 23 kts | 248° |
| 2026-05-08 10:39 | -6.12011 | 106.64595 | 39 ft | 13 kts | 248° |
| 2026-05-08 10:39 | -6.12048 | 106.64503 | 37 ft | 16 kts | 248° |
| 2026-05-08 10:39 | -6.12092 | 106.64394 | 38 ft | 18 kts | 248° |
| 2026-05-08 10:40 | -6.12143 | 106.64267 | 38 ft | 21 kts | 248° |
| 2026-05-08 10:40 | -6.12199 | 106.64125 | 38 ft | 23 kts | 248° |
| 2026-05-08 10:40 | -6.12240 | 106.64024 | 39 ft | 12 kts | 248° |
| 2026-05-08 10:40 | -6.12265 | 106.63956 | 39 ft | 11 kts | 262° |
| 2026-05-08 10:41 | -6.12223 | 106.63899 | 40 ft | 11 kts | 335° |
| 2026-05-08 10:41 | -6.12212 | 106.63895 | 38 ft | 0 kts | 340° |
| 2026-05-08 10:41 | -6.12205 | 106.63892 | 39 ft | 4 kts | 340° |
| 2026-05-08 10:42 | -6.12154 | 106.63897 | 41 ft | 10 kts | 20° |
| 2026-05-08 10:42 | -6.12079 | 106.63941 | 40 ft | 14 kts | 53° |
| 2026-05-08 10:42 | -6.12064 | 106.63974 | 40 ft | 0 kts | 68° |
| 2026-05-08 10:42 | -6.12017 | 106.64092 | 40 ft | 52 kts | 67° |
| 2026-05-08 10:43 | -6.11798 | 106.64641 | 39 ft | 115 kts | 68° |
| 2026-05-08 10:43 | -6.11433 | 106.65553 | 41 ft | 162 kts | 68° |
| 2026-05-08 10:43 | -6.11027 | 106.66555 | 748 ft | 146 kts | 64° |
| 2026-05-08 10:43 | -6.10427 | 106.67344 | 1275 ft | 149 kts | 44° |
| 2026-05-08 10:44 | -6.09588 | 106.68044 | 1619 ft | 165 kts | 34° |
| 2026-05-08 10:44 | -6.08585 | 106.68708 | 2041 ft | 183 kts | 32° |
| 2026-05-08 10:44 | -6.07434 | 106.69433 | 2463 ft | 206 kts | 32° |
| 2026-05-08 10:44 | -6.06162 | 106.70250 | 2845 ft | 231 kts | 33° |
| 2026-05-08 10:45 | -6.04732 | 106.71181 | 3321 ft | 255 kts | 30° |
| 2026-05-08 10:45 | -6.02994 | 106.71709 | 3885 ft | 272 kts | 2° |
| 2026-05-08 10:45 | -6.01120 | 106.71324 | 4716 ft | 278 kts | 334° |
| 2026-05-08 10:45 | -5.99555 | 106.70179 | 5547 ft | 282 kts | 315° |
| 2026-05-08 10:46 | -5.98191 | 106.68729 | 6368 ft | 287 kts | 312° |
| 2026-05-08 10:46 | -5.96826 | 106.67261 | 7169 ft | 291 kts | 314° |
| 2026-05-08 10:46 | -5.95393 | 106.65830 | 8012 ft | 293 kts | 316° |
| 2026-05-08 10:46 | -5.93885 | 106.64417 | 8801 ft | 297 kts | 317° |
| 2026-05-08 10:47 | -5.92327 | 106.63016 | 9603 ft | 301 kts | 319° |
| 2026-05-08 10:47 | -5.90751 | 106.61622 | 10305 ft | 307 kts | 319° |
| 2026-05-08 10:47 | -5.89098 | 106.60164 | 10579 ft | 329 kts | 319° |
| 2026-05-08 10:47 | -5.87306 | 106.58585 | 10793 ft | 351 kts | 319° |
| 2026-05-08 10:48 | -5.85443 | 106.56938 | 11371 ft | 357 kts | 319° |
| 2026-05-08 10:48 | -5.83585 | 106.55293 | 12063 ft | 361 kts | 319° |
| 2026-05-08 10:48 | -5.81685 | 106.53611 | 12743 ft | 365 kts | 319° |
| 2026-05-08 10:48 | -5.80413 | 106.52485 | 13201 ft | 368 kts | 319° |
| 2026-05-08 10:49 | -5.79374 | 106.51565 | 13567 ft | 370 kts | 319° |
| 2026-05-08 10:49 | -5.77452 | 106.49864 | 14153 ft | 374 kts | 319° |
| 2026-05-08 10:49 | -5.75494 | 106.48130 | 14746 ft | 378 kts | 319° |
| 2026-05-08 10:49 | -5.73503 | 106.46366 | 15318 ft | 382 kts | 319° |
| 2026-05-08 10:50 | -5.71492 | 106.44585 | 15884 ft | 386 kts | 319° |
| 2026-05-08 10:50 | -5.69477 | 106.42801 | 16434 ft | 390 kts | 319° |
| 2026-05-08 10:50 | -5.67427 | 106.40986 | 16981 ft | 394 kts | 319° |
| 2026-05-08 10:50 | -5.65381 | 106.39175 | 17501 ft | 398 kts | 319° |
| 2026-05-08 10:51 | -5.63286 | 106.37320 | 18036 ft | 402 kts | 319° |
| 2026-05-08 10:51 | -5.61171 | 106.35448 | 18516 ft | 404 kts | 319° |
| 2026-05-08 10:51 | -5.59072 | 106.33590 | 19027 ft | 406 kts | 319° |
| 2026-05-08 10:51 | -5.56931 | 106.31694 | 19510 ft | 409 kts | 319° |
| 2026-05-08 10:52 | -5.54812 | 106.29819 | 19982 ft | 411 kts | 319° |
| 2026-05-08 10:52 | -5.52643 | 106.27899 | 20453 ft | 414 kts | 319° |
| 2026-05-08 10:52 | -5.50492 | 106.25996 | 20923 ft | 416 kts | 319° |
| 2026-05-08 10:52 | -5.48314 | 106.24069 | 21391 ft | 419 kts | 319° |
| 2026-05-08 10:53 | -5.46108 | 106.22117 | 21860 ft | 421 kts | 319° |
| 2026-05-08 10:53 | -5.43920 | 106.20182 | 22317 ft | 424 kts | 319° |
| 2026-05-08 10:53 | -5.41690 | 106.18210 | 22701 ft | 427 kts | 319° |
| 2026-05-08 10:53 | -5.39455 | 106.16234 | 22816 ft | 427 kts | 319° |
| 2026-05-08 10:54 | -5.37219 | 106.14256 | 22828 ft | 427 kts | 319° |
| 2026-05-08 10:54 | -5.34982 | 106.12278 | 22828 ft | 427 kts | 319° |
| 2026-05-08 10:54 | -5.32771 | 106.10323 | 22927 ft | 430 kts | 320° |
| 2026-05-08 10:54 | -5.30506 | 106.08321 | 23433 ft | 430 kts | 320° |
| 2026-05-08 10:55 | -5.28285 | 106.06357 | 23820 ft | 432 kts | 320° |
| 2026-05-08 10:55 | -5.26019 | 106.04354 | 24166 ft | 434 kts | 320° |
| 2026-05-08 10:55 | -5.23743 | 106.02342 | 24531 ft | 436 kts | 320° |
| 2026-05-08 10:55 | -5.21448 | 106.00314 | 24880 ft | 439 kts | 320° |
| 2026-05-08 10:56 | -5.19168 | 105.98300 | 25216 ft | 441 kts | 320° |
| 2026-05-08 10:56 | -5.16854 | 105.96256 | 25557 ft | 443 kts | 320° |
| 2026-05-08 10:56 | -5.14525 | 105.94198 | 25886 ft | 445 kts | 320° |
| 2026-05-08 10:56 | -5.12104 | 105.92306 | 26195 ft | 446 kts | 327° |
| 2026-05-08 10:57 | -5.09448 | 105.90687 | 26519 ft | 447 kts | 332° |
| 2026-05-08 10:57 | -5.06711 | 105.89147 | 26815 ft | 449 kts | 332° |
| 2026-05-08 10:57 | -5.01254 | 105.86042 | 27415 ft | 454 kts | 332° |
| 2026-05-08 10:58 | -4.98489 | 105.84464 | 27714 ft | 456 kts | 332° |
| 2026-05-08 10:58 | -4.95721 | 105.82885 | 27993 ft | 458 kts | 332° |
| 2026-05-08 10:58 | -4.92968 | 105.81316 | 28274 ft | 460 kts | 332° |
| 2026-05-08 10:58 | -4.90167 | 105.79720 | 28554 ft | 462 kts | 332° |
| 2026-05-08 10:59 | -4.87397 | 105.78142 | 28810 ft | 464 kts | 332° |
| 2026-05-08 10:59 | -4.84577 | 105.76536 | 29078 ft | 466 kts | 332° |
| 2026-05-08 10:59 | -4.81749 | 105.74926 | 29332 ft | 468 kts | 332° |
| 2026-05-08 10:59 | -4.78913 | 105.73311 | 29584 ft | 469 kts | 332° |
| 2026-05-08 11:00 | -4.77326 | 105.72408 | 29724 ft | 471 kts | 332° |
| 2026-05-08 11:00 | -4.74505 | 105.70802 | 29829 ft | 472 kts | 332° |
| 2026-05-08 11:00 | -4.68776 | 105.67540 | 29828 ft | 472 kts | 332° |
| 2026-05-08 11:01 | -4.63054 | 105.64285 | 29831 ft | 472 kts | 332° |
| 2026-05-08 11:01 | -4.57335 | 105.61031 | 29829 ft | 472 kts | 332° |
| 2026-05-08 11:02 | -4.48796 | 105.56174 | 29826 ft | 473 kts | 332° |
| 2026-05-08 11:03 | -4.43357 | 105.53082 | 29830 ft | 473 kts | 332° |
| 2026-05-08 11:03 | -4.37635 | 105.49829 | 29827 ft | 474 kts | 332° |
| 2026-05-08 11:04 | -4.31891 | 105.46563 | 29829 ft | 474 kts | 332° |
| 2026-05-08 11:04 | -4.26179 | 105.43317 | 29827 ft | 474 kts | 332° |
| 2026-05-08 11:05 | -4.20457 | 105.40066 | 29830 ft | 474 kts | 332° |
| 2026-05-08 11:05 | -4.14690 | 105.36789 | 29659 ft | 474 kts | 332° |
| 2026-05-08 11:05 | -4.11851 | 105.35176 | 29069 ft | 474 kts | 332° |
| 2026-05-08 11:06 | -4.08968 | 105.33539 | 28182 ft | 477 kts | 332° |
| 2026-05-08 11:06 | -4.07038 | 105.32443 | 27560 ft | 479 kts | 332° |
| 2026-05-08 11:06 | -4.03202 | 105.30263 | 26835 ft | 471 kts | 332° |
| 2026-05-08 11:06 | -4.01313 | 105.29190 | 26455 ft | 467 kts | 332° |
| 2026-05-08 11:07 | -3.97560 | 105.27058 | 25670 ft | 461 kts | 332° |
| 2026-05-08 11:07 | -3.95710 | 105.26008 | 25254 ft | 459 kts | 332° |
| 2026-05-08 11:07 | -3.92942 | 105.24435 | 24666 ft | 454 kts | 332° |
| 2026-05-08 11:07 | -3.90232 | 105.22899 | 24108 ft | 450 kts | 332° |
| 2026-05-08 11:08 | -3.87502 | 105.21363 | 23551 ft | 446 kts | 332° |
| 2026-05-08 11:08 | -3.84797 | 105.19846 | 22943 ft | 442 kts | 332° |
| 2026-05-08 11:08 | -3.82124 | 105.18347 | 22388 ft | 436 kts | 332° |
| 2026-05-08 11:08 | -3.79487 | 105.16867 | 21820 ft | 431 kts | 332° |
| 2026-05-08 11:09 | -3.76907 | 105.15418 | 21274 ft | 426 kts | 332° |
| 2026-05-08 11:09 | -3.74325 | 105.13968 | 20719 ft | 422 kts | 332° |
| 2026-05-08 11:09 | -3.71790 | 105.12544 | 20153 ft | 418 kts | 332° |
| 2026-05-08 11:09 | -3.69250 | 105.11118 | 19587 ft | 416 kts | 332° |
| 2026-05-08 11:10 | -3.66734 | 105.09704 | 19047 ft | 412 kts | 332° |
| 2026-05-08 11:10 | -3.64250 | 105.08309 | 18516 ft | 409 kts | 332° |
| 2026-05-08 11:10 | -3.61795 | 105.06931 | 17970 ft | 406 kts | 332° |
| 2026-05-08 11:10 | -3.59325 | 105.05543 | 17419 ft | 402 kts | 332° |
| 2026-05-08 11:11 | -3.56912 | 105.04188 | 16890 ft | 397 kts | 332° |
| 2026-05-08 11:11 | -3.54498 | 105.02832 | 16367 ft | 393 kts | 332° |
| 2026-05-08 11:11 | -3.52112 | 105.01492 | 15841 ft | 390 kts | 332° |
| 2026-05-08 11:11 | -3.49806 | 105.00155 | 15470 ft | 382 kts | 330° |
| 2026-05-08 11:12 | -3.47548 | 104.98774 | 15123 ft | 377 kts | 329° |
| 2026-05-08 11:12 | -3.45318 | 104.97395 | 14778 ft | 379 kts | 329° |
| 2026-05-08 11:12 | -3.43066 | 104.96009 | 14425 ft | 376 kts | 330° |
| 2026-05-08 11:12 | -3.40867 | 104.94663 | 14078 ft | 372 kts | 330° |
| 2026-05-08 11:13 | -3.38639 | 104.93305 | 13731 ft | 371 kts | 330° |
| 2026-05-08 11:13 | -3.36449 | 104.91973 | 13363 ft | 368 kts | 330° |
| 2026-05-08 11:13 | -3.34271 | 104.90650 | 13017 ft | 366 kts | 330° |
| 2026-05-08 11:13 | -3.32090 | 104.89325 | 12691 ft | 364 kts | 330° |
| 2026-05-08 11:14 | -3.29920 | 104.88007 | 12465 ft | 361 kts | 330° |
| 2026-05-08 11:14 | -3.27770 | 104.86701 | 12199 ft | 363 kts | 330° |
| 2026-05-08 11:14 | -3.25651 | 104.85413 | 12078 ft | 353 kts | 330° |
| 2026-05-08 11:14 | -3.23606 | 104.84169 | 11902 ft | 334 kts | 329° |
| 2026-05-08 11:15 | -3.21669 | 104.82990 | 11674 ft | 318 kts | 329° |
| 2026-05-08 11:15 | -3.19788 | 104.81848 | 11160 ft | 313 kts | 329° |
| 2026-05-08 11:15 | -3.17937 | 104.80725 | 10767 ft | 312 kts | 329° |
| 2026-05-08 11:15 | -3.16079 | 104.79598 | 10388 ft | 310 kts | 329° |
| 2026-05-08 11:16 | -3.14256 | 104.78492 | 10086 ft | 306 kts | 329° |
| 2026-05-08 11:16 | -3.12437 | 104.77387 | 9799 ft | 301 kts | 329° |
| 2026-05-08 11:16 | -3.10654 | 104.76304 | 9501 ft | 302 kts | 329° |
| 2026-05-08 11:16 | -3.08867 | 104.75219 | 9219 ft | 300 kts | 329° |
| 2026-05-08 11:17 | -3.07090 | 104.74139 | 8950 ft | 298 kts | 329° |
| 2026-05-08 11:17 | -3.05336 | 104.73069 | 8674 ft | 297 kts | 329° |
| 2026-05-08 11:17 | -3.03563 | 104.71983 | 8400 ft | 296 kts | 329° |
| 2026-05-08 11:17 | -3.01823 | 104.70912 | 8127 ft | 295 kts | 326° |
| 2026-05-08 11:18 | -3.00324 | 104.69517 | 7843 ft | 293 kts | 306° |
| 2026-05-08 11:18 | -2.99390 | 104.67736 | 7581 ft | 291 kts | 290° |
| 2026-05-08 11:18 | -2.98657 | 104.65854 | 7310 ft | 290 kts | 291° |
| 2026-05-08 11:18 | -2.97914 | 104.63989 | 7042 ft | 289 kts | 291° |
| 2026-05-08 11:19 | -2.97161 | 104.62119 | 6770 ft | 287 kts | 291° |
| 2026-05-08 11:19 | -2.96419 | 104.60283 | 6504 ft | 286 kts | 291° |
| 2026-05-08 11:19 | -2.95686 | 104.58425 | 6229 ft | 284 kts | 290° |
| 2026-05-08 11:19 | -2.94975 | 104.56602 | 5966 ft | 284 kts | 290° |
| 2026-05-08 11:20 | -2.94256 | 104.54755 | 5700 ft | 282 kts | 290° |
| 2026-05-08 11:20 | -2.93544 | 104.52929 | 5436 ft | 281 kts | 290° |
| 2026-05-08 11:20 | -2.92837 | 104.51120 | 5176 ft | 281 kts | 290° |
| 2026-05-08 11:20 | -2.92122 | 104.49293 | 4915 ft | 279 kts | 290° |
| 2026-05-08 11:21 | -2.91421 | 104.47500 | 4654 ft | 278 kts | 290° |
| 2026-05-08 11:21 | -2.90697 | 104.45696 | 4388 ft | 278 kts | 296° |
| 2026-05-08 11:21 | -2.89508 | 104.44205 | 4131 ft | 276 kts | 323° |
| 2026-05-08 11:21 | -2.87768 | 104.43416 | 3872 ft | 277 kts | 351° |
| 2026-05-08 11:22 | -2.85868 | 104.43511 | 3622 ft | 272 kts | 18° |
| 2026-05-08 11:22 | -2.84121 | 104.44184 | 3377 ft | 270 kts | 25° |
| 2026-05-08 11:22 | -2.82433 | 104.45015 | 3119 ft | 267 kts | 37° |
| 2026-05-08 11:22 | -2.81251 | 104.46373 | 3031 ft | 259 kts | 66° |
| 2026-05-08 11:23 | -2.80983 | 104.48067 | 3022 ft | 240 kts | 97° |
| 2026-05-08 11:23 | -2.81352 | 104.49630 | 3017 ft | 224 kts | 110° |
| 2026-05-08 11:23 | -2.81892 | 104.51032 | 3021 ft | 207 kts | 113° |
| 2026-05-08 11:23 | -2.82426 | 104.52311 | 3048 ft | 189 kts | 112° |
| 2026-05-08 11:24 | -2.82903 | 104.53456 | 3017 ft | 170 kts | 113° |
| 2026-05-08 11:24 | -2.83348 | 104.54521 | 2855 ft | 162 kts | 113° |
| 2026-05-08 11:24 | -2.83776 | 104.55541 | 2666 ft | 155 kts | 112° |
| 2026-05-08 11:24 | -2.84179 | 104.56506 | 2481 ft | 145 kts | 112° |
| 2026-05-08 11:25 | -2.84555 | 104.57403 | 2306 ft | 136 kts | 112° |
| 2026-05-08 11:25 | -2.84920 | 104.58276 | 2129 ft | 139 kts | 112° |
| 2026-05-08 11:25 | -2.85289 | 104.59156 | 1961 ft | 136 kts | 112° |
| 2026-05-08 11:25 | -2.85654 | 104.60030 | 1786 ft | 135 kts | 112° |
| 2026-05-08 11:26 | -2.86015 | 104.60893 | 1616 ft | 136 kts | 111° |
| 2026-05-08 11:26 | -2.86386 | 104.61776 | 1447 ft | 138 kts | 111° |
| 2026-05-08 11:26 | -2.86754 | 104.62656 | 1437 ft | 141 kts | 112° |
| 2026-05-08 11:26 | -2.87184 | 104.63657 | 1267 ft | 174 kts | 112° |
| 2026-05-08 11:27 | -2.87620 | 104.64766 | 1012 ft | 165 kts | 110° |
| 2026-05-08 11:27 | -2.88031 | 104.65789 | 685 ft | 153 kts | 112° |
| 2026-05-08 11:27 | -2.88446 | 104.66729 | 422 ft | 144 kts | 112° |
| 2026-05-08 11:27 | -2.88823 | 104.67615 | 266 ft | 132 kts | 112° |
| 2026-05-08 11:28 | -2.89172 | 104.68435 | 90 ft | 125 kts | 112° |
| 2026-05-08 11:28 | -2.89491 | 104.69181 | 18 ft | 97 kts | 114° |
| 2026-05-08 11:28 | -2.89671 | 104.69643 | 16 ft | 55 kts | 117° |
| 2026-05-08 11:28 | -2.89783 | 104.69881 | 19 ft | 29 kts | 112° |
| 2026-05-08 11:29 | -2.89811 | 104.69950 | 21 ft | 1 kts | 91° |
| 2026-05-08 11:29 | -2.89806 | 104.69958 | 21 ft | 2 kts | 62° |
| 2026-05-08 11:29 | -2.89787 | 104.69974 | 21 ft | 5 kts | 34° |
| 2026-05-08 11:29 | -2.89743 | 104.69994 | 20 ft | 9 kts | 22° |
| 2026-05-08 11:30 | -2.89684 | 104.70021 | 21 ft | 8 kts | 38° |
| 2026-05-08 11:30 | -2.89686 | 104.70068 | 26 ft | 7 kts | 110° |
| 2026-05-08 11:30 | -2.89705 | 104.70118 | 24 ft | 8 kts | 112° |
| 2026-05-08 11:30 | -2.89730 | 104.70178 | 27 ft | 10 kts | 111° |
| 2026-05-08 11:31 | -2.89696 | 104.70227 | 27 ft | 9 kts | 17° |
| 2026-05-08 11:31 | -2.89652 | 104.70274 | 27 ft | 11 kts | 82° |
| 2026-05-08 11:31 | -2.89665 | 104.70326 | 26 ft | 1 kts | 111° |
| 2026-05-08 11:31 | -2.89671 | 104.70345 | 28 ft | 3 kts | 101° |
| 2026-05-08 11:32 | -2.89652 | 104.70363 | 28 ft | 5 kts | 12° |
| 2026-05-08 11:32 | -2.89619 | 104.70373 | 27 ft | 6 kts | 24° |
| 2026-05-08 11:32 | -2.89594 | 104.70383 | 29 ft | 1 kts | 23° |
| 2026-05-08 11:32 | -2.89586 | 104.70386 | 29 ft | 0 kts | 23° |